createdAt,value
2022-10-06T00:01:25.285Z,3.13
2022-10-06T00:03:52.681Z,3.30
2022-10-06T00:06:20.034Z,3.58
2022-10-06T00:08:48.265Z,3.22
2022-10-06T00:11:16.316Z,3.00
2022-10-06T00:13:44.293Z,3.53
2022-10-06T00:16:21.754Z,3.03
2022-10-06T00:18:49.462Z,3.20
2022-10-06T00:21:17.031Z,3.10
2022-10-06T00:23:44.388Z,3.65
2022-10-06T00:26:16.859Z,3.70
2022-10-06T00:28:47.165Z,3.33
2022-10-06T00:31:19.650Z,3.90
2022-10-06T00:33:47.571Z,3.72
2022-10-06T00:36:14.786Z,3.10
2022-10-06T00:38:42.071Z,3.47
2022-10-06T00:41:16.712Z,3.90
2022-10-06T00:43:52.165Z,3.65
2022-10-06T00:46:48.131Z,3.15
2022-10-06T00:49:18.345Z,3.40
2022-10-06T00:51:51.683Z,3.72
2022-10-06T00:54:20.027Z,3.40
2022-10-06T00:56:47.487Z,3.40
2022-10-06T00:59:19.474Z,3.40
2022-10-06T01:02:02.075Z,3.78
2022-10-06T01:04:35.738Z,3.28
2022-10-06T01:07:05.423Z,3.55
2022-10-06T01:09:33.028Z,3.80
2022-10-06T01:12:03.286Z,3.40
2022-10-06T01:17:25.825Z,3.42
2022-10-06T01:20:00.412Z,3.70
2022-10-06T01:22:34.445Z,3.08
2022-10-06T01:25:03.265Z,3.72
2022-10-06T01:27:32.546Z,3.40
2022-10-06T01:30:00.869Z,2.97
2022-10-06T01:32:34.319Z,3.85
2022-10-06T01:35:03.631Z,3.35
2022-10-06T01:37:30.991Z,3.22
2022-10-06T01:39:58.300Z,3.95
2022-10-06T01:42:26.002Z,3.75
2022-10-06T01:44:53.316Z,3.42
2022-10-06T01:47:20.581Z,3.60
2022-10-06T01:49:48.100Z,3.90
2022-10-06T01:52:16.175Z,4.00
2022-10-06T01:54:43.446Z,3.97
2022-10-06T01:57:10.771Z,4.32
2022-10-06T01:59:38.845Z,3.72
2022-10-06T02:02:06.638Z,3.50
2022-10-06T02:04:34.673Z,3.90
2022-10-06T02:07:02.283Z,3.78
2022-10-06T02:09:30.244Z,3.88
2022-10-06T02:11:58.373Z,4.15
2022-10-06T02:14:30.447Z,3.88
2022-10-06T02:16:57.997Z,3.80
2022-10-06T02:19:25.389Z,3.33
2022-10-06T02:21:52.735Z,4.07
2022-10-06T02:24:21.327Z,3.78
2022-10-06T02:26:48.907Z,4.45
2022-10-06T02:29:16.124Z,4.15
2022-10-06T02:31:43.487Z,4.57
2022-10-06T02:34:11.721Z,4.15
2022-10-06T02:36:39.708Z,3.97
2022-10-06T02:39:07.827Z,4.00
2022-10-06T02:41:35.732Z,4.18
2022-10-06T02:44:04.444Z,4.40
2022-10-06T02:46:32.352Z,5.13
2022-10-06T02:48:59.955Z,4.28
2022-10-06T02:51:27.671Z,3.70
2022-10-06T02:53:55.335Z,3.83
2022-10-06T02:56:24.984Z,4.68
2022-10-06T02:58:54.040Z,4.57
2022-10-06T03:01:32.378Z,3.95
2022-10-06T03:04:07.044Z,4.80
2022-10-06T03:06:35.955Z,4.65
2022-10-06T03:09:09.621Z,4.88
2022-10-06T03:11:42.048Z,4.10
2022-10-06T03:14:12.413Z,3.75
2022-10-06T03:16:41.641Z,4.05
2022-10-06T03:19:18.650Z,3.63
2022-10-06T03:21:47.115Z,4.03
2022-10-06T03:24:14.582Z,4.47
2022-10-06T03:26:48.264Z,3.58
2022-10-06T03:29:17.317Z,3.97
2022-10-06T03:31:50.035Z,4.25
2022-10-06T03:34:17.557Z,4.35
2022-10-06T03:36:45.409Z,7.60
2022-10-06T03:39:13.571Z,6.40
2022-10-06T03:41:41.307Z,4.70
2022-10-06T03:44:10.271Z,4.57
2022-10-06T03:49:08.839Z,5.88
2022-10-06T03:51:39.534Z,4.93
2022-10-06T03:54:11.068Z,5.95
2022-10-06T03:56:41.682Z,6.45
2022-10-06T03:59:13.823Z,5.30
2022-10-06T04:01:46.623Z,4.47
2022-10-06T04:04:18.678Z,4.25
2022-10-06T04:06:49.871Z,3.97
2022-10-06T04:09:19.806Z,4.03
2022-10-06T04:11:48.111Z,4.30
2022-10-06T04:14:16.935Z,4.32
2022-10-06T04:16:48.602Z,3.90
2022-10-06T04:19:20.912Z,3.75
2022-10-06T04:21:54.040Z,4.30
2022-10-06T04:24:24.068Z,4.97
2022-10-06T04:26:52.575Z,4.13
2022-10-06T04:29:21.774Z,3.95
2022-10-06T04:31:53.972Z,4.18
2022-10-06T04:34:41.833Z,3.92
2022-10-06T04:37:10.941Z,4.30
2022-10-06T04:39:39.858Z,4.32
2022-10-06T04:42:08.324Z,3.75
2022-10-06T04:44:36.484Z,3.58
2022-10-06T04:47:04.551Z,3.88
2022-10-06T04:49:32.329Z,3.75
2022-10-06T04:52:00.124Z,3.97
2022-10-06T04:54:33.911Z,4.80
2022-10-06T04:57:04.117Z,3.85
2022-10-06T04:59:51.076Z,4.25
2022-10-06T05:02:19.926Z,4.32
2022-10-06T05:04:50.984Z,4.25
2022-10-06T05:07:19.580Z,4.18
2022-10-06T05:09:47.081Z,4.60
2022-10-06T05:12:14.533Z,3.83
2022-10-06T05:14:41.869Z,4.30
2022-10-06T05:17:09.150Z,4.53
2022-10-06T05:19:37.928Z,4.20
2022-10-06T05:22:06.434Z,4.53
2022-10-06T05:24:34.646Z,3.85
2022-10-06T05:27:04.061Z,4.40
2022-10-06T05:29:34.233Z,4.10
2022-10-06T05:32:02.919Z,4.03
2022-10-06T05:34:30.362Z,3.80
2022-10-06T05:36:58.601Z,4.25
2022-10-06T05:39:26.010Z,4.43
2022-10-06T05:41:57.518Z,3.55
2022-10-06T05:44:26.346Z,4.50
2022-10-06T05:46:55.515Z,3.72
2022-10-06T05:49:24.264Z,3.78
2022-10-06T05:51:56.247Z,4.72
2022-10-06T05:54:27.821Z,4.60
2022-10-06T05:56:55.933Z,4.93
2022-10-06T05:59:23.925Z,4.55
2022-10-06T06:01:53.564Z,4.35
2022-10-06T06:04:28.914Z,4.30
2022-10-06T06:06:58.715Z,4.20
2022-10-06T06:09:28.914Z,4.80
2022-10-06T06:12:00.425Z,5.05
2022-10-06T06:15:07.914Z,5.03
2022-10-06T06:17:46.435Z,4.88
2022-10-06T06:20:13.954Z,4.93
2022-10-06T06:22:41.152Z,5.35
2022-10-06T06:25:09.945Z,5.13
2022-10-06T06:27:37.194Z,5.07
2022-10-06T06:30:08.407Z,6.07
2022-10-06T06:32:36.507Z,6.30
2022-10-06T06:35:06.758Z,6.97
2022-10-06T06:37:34.600Z,7.15
2022-10-06T06:40:02.647Z,6.40
2022-10-06T06:42:32.681Z,6.13
2022-10-06T06:45:17.919Z,5.22
2022-10-06T06:48:06.154Z,5.13
2022-10-06T06:50:34.792Z,6.47
2022-10-06T06:53:02.663Z,6.05
2022-10-06T06:55:32.489Z,5.38
2022-10-06T06:58:00.835Z,6.10
2022-10-06T07:00:32.534Z,5.80
2022-10-06T07:03:06.251Z,6.70
2022-10-06T07:05:35.189Z,5.60
2022-10-06T07:08:02.735Z,5.72
2022-10-06T07:10:36.367Z,6.78
2022-10-06T07:13:07.054Z,6.68
2022-10-06T07:15:53.809Z,7.32
2022-10-06T07:18:44.589Z,7.38
2022-10-06T07:21:34.035Z,6.18
2022-10-06T07:24:19.766Z,10.25
2022-10-06T07:26:49.231Z,9.27
2022-10-06T07:29:16.499Z,7.13
2022-10-06T07:31:49.612Z,6.82
2022-10-06T07:34:16.936Z,7.22
2022-10-06T07:36:46.684Z,6.63
2022-10-06T07:39:14.160Z,6.28
2022-10-06T07:41:41.927Z,7.05
2022-10-06T07:44:09.327Z,8.18
2022-10-06T07:46:45.035Z,7.68
2022-10-06T07:49:17.552Z,6.00
2022-10-06T07:51:45.482Z,6.65
2022-10-06T07:54:13.084Z,6.90
2022-10-06T07:56:43.442Z,6.10
2022-10-06T07:59:10.905Z,6.47
2022-10-06T08:01:39.452Z,6.20
2022-10-06T08:04:07.037Z,7.95
2022-10-06T08:06:35.246Z,9.00
2022-10-06T08:09:02.812Z,9.98
2022-10-06T08:11:30.455Z,10.55
2022-10-06T08:13:58.880Z,11.27
2022-10-06T08:16:30.510Z,11.43
2022-10-06T08:19:00.189Z,10.05
2022-10-06T08:21:30.064Z,10.30
2022-10-06T08:23:59.615Z,10.43
2022-10-06T08:26:29.278Z,13.00
2022-10-06T08:28:58.891Z,9.98
2022-10-06T08:31:27.908Z,8.52
2022-10-06T08:33:57.739Z,8.43
2022-10-06T08:36:31.281Z,10.85
2022-10-06T08:39:00.455Z,9.30
2022-10-06T08:41:33.721Z,10.18
2022-10-06T08:44:21.405Z,9.23
2022-10-06T08:47:00.616Z,7.05
2022-10-06T08:54:03.266Z,16.42
2022-10-06T08:56:45.367Z,18.48
2022-10-06T08:59:12.830Z,8.00
2022-10-06T09:01:49.542Z,9.70
2022-10-06T09:04:29.340Z,7.88
2022-10-06T09:07:00.416Z,7.90
2022-10-06T09:09:46.678Z,5.63
2022-10-06T09:12:38.389Z,5.38
2022-10-06T09:15:21.126Z,5.22
2022-10-06T09:17:56.745Z,5.00
2022-10-06T09:20:31.037Z,4.80
2022-10-06T09:22:59.344Z,6.72
2022-10-06T09:25:29.376Z,5.13
2022-10-06T09:27:59.287Z,4.60
2022-10-06T09:30:27.977Z,4.40
2022-10-06T09:33:00.469Z,5.07
2022-10-06T09:35:30.786Z,4.50
2022-10-06T09:40:46.286Z,4.10
2022-10-06T09:43:31.415Z,4.22
2022-10-06T09:46:41.921Z,4.22
2022-10-06T09:52:04.399Z,4.28
2022-10-06T09:54:34.693Z,3.47
2022-10-06T09:57:20.348Z,3.90
2022-10-06T09:59:48.065Z,3.70
2022-10-06T10:02:41.047Z,3.65
2022-10-06T10:05:21.219Z,4.50
2022-10-06T10:08:02.233Z,3.78
2022-10-06T10:10:34.593Z,4.20
2022-10-06T10:13:02.602Z,5.70
2022-10-06T10:15:44.031Z,6.15
2022-10-06T10:18:14.236Z,6.07
2022-10-06T10:20:56.627Z,4.75
2022-10-06T10:23:35.267Z,4.88
2022-10-06T10:26:14.048Z,5.25
2022-10-06T10:28:56.674Z,4.07
2022-10-06T10:31:36.460Z,3.95
2022-10-06T10:34:24.869Z,4.40
2022-10-06T10:37:00.653Z,5.63
2022-10-06T10:39:38.165Z,3.78
2022-10-06T10:42:24.961Z,4.20
2022-10-06T10:45:06.425Z,3.95
2022-10-06T10:47:39.063Z,3.85
2022-10-06T10:50:37.508Z,4.22
2022-10-06T10:53:42.642Z,3.50
2022-10-06T10:56:13.713Z,3.83
2022-10-06T10:58:44.261Z,3.65
2022-10-06T11:01:36.477Z,3.67
2022-10-06T11:04:04.497Z,4.03
2022-10-06T11:07:00.715Z,4.57
2022-10-06T11:09:39.977Z,4.30
2022-10-06T11:12:19.853Z,3.42
2022-10-06T11:15:00.323Z,3.30
2022-10-06T11:17:28.991Z,3.33
2022-10-06T11:20:19.804Z,3.40
2022-10-06T11:23:06.906Z,3.65
2022-10-06T11:26:07.404Z,3.53
2022-10-06T11:28:59.742Z,3.63
2022-10-06T11:31:51.802Z,3.60
2022-10-06T11:34:19.427Z,2.90
2022-10-06T11:36:55.907Z,2.90
2022-10-06T11:39:30.398Z,2.78
2022-10-06T11:42:31.122Z,3.30
2022-10-06T11:45:23.982Z,2.85
2022-10-06T11:48:26.903Z,3.22
2022-10-06T11:50:55.798Z,3.00
2022-10-06T11:53:37.336Z,2.80
2022-10-06T11:56:19.611Z,2.80
2022-10-06T11:58:55.901Z,4.55
2022-10-06T12:01:36.772Z,2.60
2022-10-06T12:04:08.510Z,2.75
2022-10-06T12:06:45.766Z,2.80
2022-10-06T12:09:49.629Z,3.03
2022-10-06T12:12:19.488Z,3.47
2022-10-06T12:18:00.229Z,2.80
2022-10-06T12:20:46.200Z,2.65
2022-10-06T12:23:40.934Z,2.90
2022-10-06T12:26:20.034Z,3.10
2022-10-06T12:29:16.471Z,2.80
2022-10-06T12:32:05.036Z,2.92
2022-10-06T12:34:42.178Z,2.72
2022-10-06T12:37:40.067Z,2.80
2022-10-06T12:40:41.155Z,2.55
2022-10-06T12:43:23.340Z,2.90
2022-10-06T12:45:57.938Z,2.70
2022-10-06T12:48:57.869Z,2.78
2022-10-06T12:51:45.182Z,3.40
2022-10-06T12:54:28.573Z,3.35
2022-10-06T12:57:02.063Z,3.70
2022-10-06T12:59:40.290Z,2.95
2022-10-06T13:02:22.314Z,2.90
2022-10-06T13:05:03.278Z,4.65
2022-10-06T13:07:34.876Z,4.18
2022-10-06T13:10:14.672Z,4.25
2022-10-06T13:12:47.559Z,3.65
2022-10-06T13:15:36.139Z,3.72
2022-10-06T13:18:14.342Z,3.47
2022-10-06T13:20:50.874Z,4.00
2022-10-06T13:23:36.625Z,3.70
2022-10-06T13:26:18.784Z,4.05
2022-10-06T13:28:49.189Z,3.50
2022-10-06T13:31:27.365Z,3.40
2022-10-06T13:34:00.496Z,3.33
2022-10-06T13:36:30.495Z,3.47
2022-10-06T13:38:58.385Z,3.22
2022-10-06T13:41:32.452Z,3.10
2022-10-06T13:44:18.990Z,3.38
2022-10-06T13:46:49.724Z,3.35
2022-10-06T13:49:29.543Z,3.60
2022-10-06T13:52:02.592Z,3.13
2022-10-06T13:54:38.650Z,3.60
2022-10-06T13:57:43.396Z,3.20
2022-10-06T14:00:27.362Z,3.22
2022-10-06T14:02:57.210Z,3.33
2022-10-06T14:05:26.572Z,3.38
2022-10-06T14:08:00.503Z,3.03
2022-10-06T14:11:01.151Z,2.97
2022-10-06T14:13:33.067Z,3.35
2022-10-06T14:16:06.594Z,3.30
2022-10-06T14:18:44.354Z,3.78
2022-10-06T14:21:30.386Z,3.15
2022-10-06T14:23:59.450Z,3.30
2022-10-06T14:26:29.903Z,3.05
2022-10-06T14:28:58.820Z,3.00
2022-10-06T14:31:27.960Z,3.05
2022-10-06T14:33:57.195Z,2.90
2022-10-06T14:36:33.097Z,3.53
2022-10-06T14:39:02.371Z,3.10
2022-10-06T14:41:30.457Z,2.95
2022-10-06T14:44:01.898Z,3.95
2022-10-06T14:46:30.226Z,3.35
2022-10-06T14:48:57.749Z,3.53
2022-10-06T14:51:27.248Z,2.85
2022-10-06T14:53:56.632Z,3.45
2022-10-06T14:56:26.576Z,3.47
2022-10-06T14:58:53.881Z,3.20
2022-10-06T15:01:25.011Z,3.47
2022-10-06T15:03:54.000Z,3.17
2022-10-06T15:06:40.120Z,3.30
2022-10-06T15:09:09.931Z,3.10
2022-10-06T15:11:38.422Z,3.40
2022-10-06T15:14:08.786Z,3.03
2022-10-06T15:16:40.923Z,3.28
2022-10-06T15:19:09.291Z,2.72
2022-10-06T15:21:39.863Z,3.00
2022-10-06T15:24:11.397Z,2.88
2022-10-06T15:26:56.984Z,3.30
2022-10-06T15:29:24.566Z,3.30
2022-10-06T15:31:53.049Z,3.03
2022-10-06T15:34:32.153Z,2.80
2022-10-06T15:36:59.892Z,3.35
2022-10-06T15:39:32.267Z,2.65
2022-10-06T15:41:59.553Z,3.15
2022-10-06T15:44:27.093Z,2.97
2022-10-06T15:46:56.249Z,3.20
2022-10-06T15:49:26.136Z,3.33
2022-10-06T15:51:56.923Z,3.15
2022-10-06T15:54:25.121Z,3.13
2022-10-06T15:56:57.759Z,3.22
2022-10-06T15:59:26.112Z,4.32
2022-10-06T16:01:57.214Z,3.78
2022-10-06T16:04:48.952Z,3.58
2022-10-06T16:07:18.683Z,3.60
2022-10-06T16:09:48.114Z,3.05
2022-10-06T16:12:21.560Z,3.27
2022-10-06T16:14:49.343Z,3.50
2022-10-06T16:17:17.436Z,3.03
2022-10-06T16:19:45.161Z,3.67
2022-10-06T16:22:14.951Z,3.10
2022-10-06T16:24:42.381Z,3.22
2022-10-06T16:27:14.005Z,3.47
2022-10-06T16:29:42.478Z,3.25
2022-10-06T16:32:09.789Z,3.40
2022-10-06T16:34:37.147Z,3.38
2022-10-06T16:37:05.292Z,2.83
2022-10-06T16:39:32.699Z,3.35
2022-10-06T16:42:02.223Z,3.30
2022-10-06T16:44:29.951Z,3.30
2022-10-06T16:46:57.344Z,3.33
2022-10-06T16:49:25.081Z,3.28
2022-10-06T16:51:52.280Z,3.30
2022-10-06T16:54:19.770Z,3.00
2022-10-06T16:56:51.935Z,3.60
2022-10-06T16:59:26.159Z,3.22
2022-10-06T17:01:53.861Z,3.22
2022-10-06T17:04:25.632Z,3.22
2022-10-06T17:06:54.197Z,2.92
2022-10-06T17:09:26.405Z,3.05
2022-10-06T17:11:56.216Z,3.30
2022-10-06T17:14:23.992Z,4.00
2022-10-06T17:16:53.705Z,3.25
2022-10-06T17:19:22.934Z,3.25
2022-10-06T17:21:55.587Z,3.47
2022-10-06T17:24:29.077Z,3.30
2022-10-06T17:26:57.871Z,3.55
2022-10-06T17:29:26.127Z,3.28
2022-10-06T17:31:59.687Z,3.58
2022-10-06T17:34:32.210Z,3.38
2022-10-06T17:37:01.037Z,2.95
2022-10-06T17:39:28.307Z,3.28
2022-10-06T17:41:55.730Z,3.38
2022-10-06T17:44:26.528Z,4.07
2022-10-06T17:47:00.680Z,3.55
2022-10-06T17:49:30.549Z,2.95
2022-10-06T17:51:58.020Z,3.05
2022-10-06T17:54:27.183Z,3.38
2022-10-06T17:56:56.939Z,3.50
2022-10-06T17:59:32.655Z,4.03
2022-10-06T18:02:03.121Z,3.40
2022-10-06T18:04:31.118Z,4.05
2022-10-06T18:06:58.681Z,3.30
2022-10-06T18:09:26.206Z,3.50
2022-10-06T18:11:57.809Z,4.15
2022-10-06T18:14:27.070Z,3.20
2022-10-06T18:17:00.856Z,3.53
2022-10-06T18:19:31.274Z,4.28
2022-10-06T18:22:04.310Z,3.63
2022-10-06T18:24:32.244Z,4.18
2022-10-06T18:27:01.372Z,4.30
2022-10-06T18:29:32.816Z,3.70
2022-10-06T18:32:27.259Z,3.67
2022-10-06T18:37:36.940Z,4.30
2022-10-06T18:40:09.282Z,4.38
2022-10-06T18:42:39.306Z,4.85
2022-10-06T18:45:26.982Z,3.90
2022-10-06T18:48:12.812Z,4.10
2022-10-06T18:50:40.344Z,4.10
2022-10-06T18:53:08.512Z,3.90
2022-10-06T18:55:37.049Z,3.80
2022-10-06T18:58:05.269Z,3.55
2022-10-06T19:00:32.620Z,3.97
2022-10-06T19:02:59.804Z,3.80
2022-10-06T19:05:27.161Z,3.83
2022-10-06T19:07:54.666Z,3.92
2022-10-06T19:10:22.248Z,4.00
2022-10-06T19:12:49.897Z,4.28
2022-10-06T19:15:20.746Z,4.82
2022-10-06T19:17:49.896Z,3.45
2022-10-06T19:20:18.603Z,3.40
2022-10-06T19:22:47.822Z,3.53
2022-10-06T19:25:18.892Z,3.63
2022-10-06T19:27:47.074Z,3.70
2022-10-06T19:30:15.923Z,3.50
2022-10-06T19:32:43.542Z,3.53
2022-10-06T19:35:11.567Z,3.70
2022-10-06T19:37:40.339Z,3.38
2022-10-06T19:40:11.440Z,3.38
2022-10-06T19:42:48.156Z,3.20
2022-10-06T19:45:16.680Z,3.88
2022-10-06T19:47:45.734Z,8.05
2022-10-06T19:50:14.120Z,5.33
2022-10-06T19:52:42.269Z,3.25
2022-10-06T19:55:10.029Z,3.13
2022-10-06T19:57:37.751Z,3.50
2022-10-06T20:00:06.999Z,3.58
2022-10-06T20:02:43.190Z,4.10
2022-10-06T20:07:43.878Z,3.58
2022-10-06T20:10:12.938Z,3.72
2022-10-06T20:12:41.687Z,3.67
2022-10-06T20:15:10.309Z,3.42
2022-10-06T20:17:37.948Z,3.55
2022-10-06T20:20:06.393Z,3.50
2022-10-06T20:22:33.718Z,3.75
2022-10-06T20:25:02.757Z,3.17
2022-10-06T20:27:31.194Z,3.58
2022-10-06T20:29:58.507Z,3.42
2022-10-06T20:32:26.356Z,4.53
2022-10-06T20:34:53.674Z,3.47
2022-10-06T20:37:21.125Z,3.63
2022-10-06T20:40:07.073Z,3.33
2022-10-06T20:42:34.388Z,3.47
2022-10-06T20:45:01.682Z,3.70
2022-10-06T20:47:29.926Z,4.28
2022-10-06T20:49:57.194Z,4.10
2022-10-06T20:52:24.629Z,4.32
2022-10-06T20:54:52.457Z,6.78
2022-10-06T20:57:20.110Z,5.72
2022-10-06T20:59:47.429Z,4.50
2022-10-06T21:02:14.822Z,5.43
2022-10-06T21:04:45.251Z,4.63
2022-10-06T21:09:40.037Z,4.10
2022-10-06T21:12:07.420Z,4.00
2022-10-06T21:14:36.343Z,4.90
2022-10-06T21:17:04.118Z,3.80
2022-10-06T21:19:31.586Z,3.88
2022-10-06T21:21:58.837Z,3.75
2022-10-06T21:24:26.085Z,4.35
2022-10-06T21:26:53.263Z,3.92
2022-10-06T21:29:21.274Z,4.20
2022-10-06T21:31:48.797Z,4.13
2022-10-06T21:34:16.176Z,4.47
2022-10-06T21:36:43.959Z,3.65
2022-10-06T21:39:12.418Z,4.18
2022-10-06T21:41:40.243Z,3.80
2022-10-06T21:44:08.960Z,4.32
2022-10-06T21:46:38.923Z,3.85
2022-10-06T21:49:10.062Z,4.00
2022-10-06T21:51:37.698Z,3.70
2022-10-06T21:54:05.143Z,3.50
2022-10-06T21:56:33.916Z,3.78
2022-10-06T21:59:01.303Z,3.90
2022-10-06T22:01:31.191Z,3.65
2022-10-06T22:04:00.307Z,4.07
2022-10-06T22:06:29.384Z,3.55
2022-10-06T22:08:57.870Z,3.50
2022-10-06T22:11:28.790Z,3.50
2022-10-06T22:14:00.411Z,3.65
2022-10-06T22:16:29.993Z,3.70
2022-10-06T22:18:58.050Z,4.27
2022-10-06T22:21:30.995Z,3.33
2022-10-06T22:24:00.636Z,3.67
2022-10-06T22:26:29.318Z,4.28
2022-10-06T22:28:58.336Z,4.18
2022-10-06T22:31:27.093Z,4.78
2022-10-06T22:33:56.960Z,3.47
2022-10-06T22:36:25.393Z,3.55
2022-10-06T22:38:53.725Z,3.60
2022-10-06T22:41:21.339Z,4.38
2022-10-06T22:43:49.060Z,4.30
2022-10-06T22:46:16.352Z,4.18
2022-10-06T22:48:43.687Z,4.47
2022-10-06T22:51:10.937Z,3.90
2022-10-06T22:53:38.215Z,4.10
2022-10-06T22:56:05.455Z,4.28
2022-10-06T22:58:32.950Z,4.07
2022-10-06T23:01:10.668Z,4.32
2022-10-06T23:03:38.989Z,4.40
2022-10-06T23:06:07.432Z,4.63
2022-10-06T23:08:35.544Z,4.47
2022-10-06T23:11:17.555Z,4.40
2022-10-06T23:13:45.358Z,4.93
2022-10-06T23:16:15.377Z,4.25
2022-10-06T23:18:44.633Z,4.50
2022-10-06T23:21:19.094Z,4.47
2022-10-06T23:23:50.694Z,3.70
2022-10-06T23:26:22.082Z,4.57
2022-10-06T23:28:58.493Z,4.10
2022-10-06T23:31:26.432Z,4.10
2022-10-06T23:33:54.521Z,4.22
2022-10-06T23:36:21.928Z,4.22
2022-10-06T23:38:49.306Z,4.43
2022-10-06T23:41:16.642Z,4.43
2022-10-06T23:43:44.569Z,4.22
2022-10-06T23:46:12.333Z,4.05
2022-10-06T23:48:40.064Z,4.38
2022-10-06T23:51:12.730Z,4.38
2022-10-06T23:53:40.225Z,4.65
2022-10-06T23:56:08.261Z,4.50
2022-10-06T23:58:35.679Z,4.50
